ETNN

Norvenich Airport

Germany
METAR ETNN 211520Z 13002KT 9999 FEW300 M00/M06 Q1020 BLU+BLU+
Observed Flight Rules
Jan-21 @ 15:20 UTC (34 minutes ago) Visual Flight Rules
Wind Visibility Clouds
130° at 2 knots 10,000+ meters
  • Few at 30,000' AGL
Temperatures Readings
Current 0°C / 32°F
Dewpoint -6°C / 21°F
Humidity 64%
Altimeter 30.12" Hg
Pressure 1019.92 hPa
Elevation 135
METAR ETNN 211520Z 13002KT 9999 FEW300 M00/M06 Q1020 BLU+BLU+
Observed Flight Rules
Jan-21 @ 15:20 UTC
(34 minutes ago)
VFR
Wind Visibility
130° at 2 knots 10,000+ meters
Clouds
  • Few at 30,000' AGL
Temperature Dewpoint
0°C / 32°F -6°C / 21°F
Humidity Altimeter Pressure
64% 30.12" Hg 1019.92 hPa